Long Island Mac Arthur Airport
KISP : now visible

Airfield :











YOU CAN JOIN US ON...

 
LOGIN :

Register | Disclaimer

   EN    FR    IT 

 









Legend :    VFR   Marginal VFR   IFR   Intensive IFR   Very Intensive IFR
Visi :
Ceiling :
>= 8 km
>= 3000ft
5 to 8 km
1000 to 3000 ft
1500m to 5 km
500 to 1000 ft
800 to 1500m
200 to 500 ft
< 800m
< 200 ft
Symbols :   Thunderstorms  Fog  Heavy snow  Heavy precipitations  Wind > 20 kt






- Airport Elevation : 99 ft
- IATA code : ISP


KISP - Long Island Mac Arthur

CURRENT METAR :
  • 192256Z 33003KT 10SM OVC027 07/03 A2983 RMK AO2 SLP103 T00670028

EXPIRED METARs :
  • 192156Z 32005KT 10SM BKN025 07/02 A2981 RMK AO2 SLP096 T00670022
  • 192056Z 30007KT 10SM OVC025 07/02 A2981 RMK AO2 SLP094 T00720022 53015

TAF KISP
Valid from the 19 at 20:00 until the 20 at 18:00 UTC


191931Z 1920/2018 30008KT P6SM BKN025
FM200000 33006KT P6SM SCT030 BKN050
FM200800 34006KT P6SM BKN030 BKN050
FM201100 34008KT P6SM BKN025
FM201500 34010G17KT P6SM BKN020



MET'MAP, your aeronautical weather chart ! - Copyright ORBIFLY December 2007 - Disclaimer

ORBIFLY MET'MAP TEAM :

Programming & Development : Alexandra Zaïnal
Concept & Development : Baudouin d'Aumeries
Co-Development & Prog : Marc-Olivier Méhu
Technical & hardware support : Manuel Goepfert

Contact : metmap@orbifly.com




SOURCES & CREDITS :

   NOAA       Earth
Advisory